createdAt,value
2022-08-05T00:02:22.032Z,95599.19
2022-08-05T00:07:59.099Z,95597.69
2022-08-05T00:12:56.695Z,95586.22
2022-08-05T00:18:09.822Z,95594.72
2022-08-05T00:23:44.722Z,95589.41
2022-08-05T00:28:47.263Z,95576.41
2022-08-05T00:34:55.794Z,95580.53
2022-08-05T00:39:15.228Z,95585.19
2022-08-05T00:44:17.417Z,95581.63
2022-08-05T00:49:20.458Z,95581.66
2022-08-05T00:54:22.654Z,95574.53
2022-08-05T00:59:44.736Z,95573.06
2022-08-05T01:04:50.344Z,95572.31
2022-08-05T01:09:55.487Z,95568.47
2022-08-05T01:15:05.805Z,95575.66
2022-08-05T01:20:31.825Z,95572.09
2022-08-05T01:26:19.901Z,95567.78
2022-08-05T01:31:27.241Z,95562.69
2022-08-05T01:36:34.329Z,95573.19
2022-08-05T01:41:48.894Z,95561.72
2022-08-05T01:46:53.208Z,95563.25
2022-08-05T01:52:17.713Z,95554.09
2022-08-05T01:58:29.428Z,95558.19
2022-08-05T02:02:58.019Z,95551.84
2022-08-05T02:08:03.138Z,95561.78
2022-08-05T02:13:16.305Z,95555.94
2022-08-05T02:18:35.021Z,95552.59
2022-08-05T02:23:42.948Z,95549.06
2022-08-05T02:28:50.232Z,95558.25
2022-08-05T02:34:00.041Z,95556.22
2022-08-05T02:39:08.795Z,95555.97
2022-08-05T02:44:13.893Z,95555.97
2022-08-05T02:49:16.677Z,95563.13
2022-08-05T02:54:36.127Z,95554.44
2022-08-05T02:59:50.302Z,95555.75
2022-08-05T03:04:55.186Z,95554.19
2022-08-05T03:09:58.318Z,95546.00
2022-08-05T03:15:03.265Z,95538.88
2022-08-05T03:20:10.226Z,95545.75
2022-08-05T03:25:33.587Z,95543.22
2022-08-05T03:30:38.250Z,95539.13
2022-08-05T03:35:46.090Z,95529.44
2022-08-05T03:40:49.955Z,95537.34
2022-08-05T03:45:58.055Z,95529.91
2022-08-05T03:52:39.201Z,95526.63
2022-08-05T03:56:46.771Z,95529.16
2022-08-05T04:01:58.993Z,95529.41
2022-08-05T04:07:02.675Z,95526.84
2022-08-05T04:12:24.475Z,95523.03
2022-08-05T04:17:36.470Z,95528.38
2022-08-05T04:23:00.260Z,95515.34
2022-08-05T04:28:13.234Z,95520.47
2022-08-05T04:33:54.978Z,95524.06
2022-08-05T04:38:46.067Z,95515.63
2022-08-05T04:43:54.411Z,95517.16
2022-08-05T04:49:00.623Z,95520.22
2022-08-05T04:54:04.312Z,95520.50
2022-08-05T04:59:22.059Z,95519.97
2022-08-05T05:04:30.086Z,95526.59
2022-08-05T05:09:37.372Z,95537.31
2022-08-05T05:14:49.345Z,95545.22
2022-08-05T05:19:56.659Z,95552.34
2022-08-05T05:25:16.717Z,95583.97
2022-08-05T05:30:29.263Z,95614.41
2022-08-05T05:35:39.559Z,95633.16
2022-08-05T05:40:54.145Z,95623.69
2022-08-05T05:45:57.051Z,95606.09
2022-08-05T05:51:15.009Z,95598.53
2022-08-05T05:56:26.226Z,95584.81
2022-08-05T06:01:57.611Z,95584.34
2022-08-05T06:07:13.208Z,95579.28
2022-08-05T06:12:27.332Z,95577.31
2022-08-05T06:17:31.014Z,95572.25
2022-08-05T06:22:35.226Z,95564.38
2022-08-05T06:28:12.092Z,95560.56
2022-08-05T06:33:00.769Z,95545.03
2022-08-05T06:38:11.112Z,95550.38
2022-08-05T06:43:58.839Z,95548.06
2022-08-05T06:48:56.339Z,95561.31
2022-08-05T06:54:02.864Z,95591.91
2022-08-05T06:59:08.343Z,95609.31
2022-08-05T07:04:13.898Z,95595.75
2022-08-05T07:09:16.625Z,95602.13
2022-08-05T07:14:38.216Z,95603.41
2022-08-05T07:20:31.582Z,95608.25
2022-08-05T07:25:22.869Z,95633.56
2022-08-05T07:30:38.140Z,95626.16
2022-08-05T07:36:02.812Z,95622.06
2022-08-05T07:42:07.743Z,95629.47
2022-08-05T07:46:39.571Z,95662.66
2022-08-05T07:51:53.064Z,95690.50
2022-08-05T07:57:01.641Z,95667.78
2022-08-05T08:02:18.017Z,95668.28
2022-08-05T08:07:22.086Z,95677.22
2022-08-05T08:12:35.158Z,95669.31
2022-08-05T08:17:44.011Z,95686.41
2022-08-05T08:23:03.116Z,95694.06
2022-08-05T08:28:18.748Z,95729.81
2022-08-05T08:33:38.091Z,95703.28
2022-08-05T08:38:40.269Z,95728.31
2022-08-05T08:45:18.433Z,95710.66
2022-08-05T08:50:05.841Z,95723.16
2022-08-05T08:54:43.758Z,95702.22
2022-08-05T08:59:48.947Z,95732.38
2022-08-05T09:05:16.172Z,95736.47
2022-08-05T09:10:15.894Z,95725.19
2022-08-05T09:15:21.088Z,95741.78
2022-08-05T09:20:36.607Z,95739.41
2022-08-05T09:26:03.234Z,95740.16
2022-08-05T09:32:38.719Z,95746.41
2022-08-05T09:36:59.692Z,95759.69
2022-08-05T09:42:17.555Z,95756.06
2022-08-05T09:47:49.073Z,95756.31
2022-08-05T09:52:57.811Z,95766.13
2022-08-05T09:58:16.748Z,95759.25
2022-08-05T10:03:20.365Z,95767.47
2022-08-05T10:08:37.456Z,95765.09
2022-08-05T10:13:47.861Z,95767.91
2022-08-05T10:18:58.133Z,95772.50
2022-08-05T10:24:01.348Z,95753.97
2022-08-05T10:29:05.519Z,95763.81
2022-08-05T10:34:11.591Z,95765.56
2022-08-05T10:39:59.260Z,95763.41
2022-08-05T10:44:59.332Z,95793.53
2022-08-05T10:50:33.151Z,95771.69
2022-08-05T10:56:05.364Z,95763.56
2022-08-05T11:01:28.052Z,95783.69
2022-08-05T11:06:31.365Z,95770.66
2022-08-05T11:11:44.533Z,95764.28
2022-08-05T11:17:58.769Z,95755.84
2022-08-05T11:22:53.925Z,95751.72
2022-08-05T11:28:05.593Z,95745.56
2022-08-05T11:33:43.953Z,95752.13
2022-08-05T11:38:51.257Z,95753.19
2022-08-05T11:44:07.117Z,95752.72
2022-08-05T11:49:15.836Z,95754.09
2022-08-05T11:54:33.431Z,95754.03
2022-08-05T11:59:49.814Z,95748.56
2022-08-05T12:04:59.038Z,95760.63
2022-08-05T12:10:09.661Z,95745.09
2022-08-05T12:15:33.271Z,95727.50
2022-08-05T12:20:40.695Z,95734.38
2022-08-05T12:25:56.735Z,95722.63
2022-08-05T12:31:02.203Z,95725.66
2022-08-05T12:36:08.010Z,95720.63
2022-08-05T12:41:14.126Z,95718.31
2022-08-05T12:46:29.281Z,95716.69
2022-08-05T12:52:10.353Z,95720.56
2022-08-05T12:57:10.205Z,95709.81
2022-08-05T13:02:30.633Z,95717.47
2022-08-05T13:13:08.962Z,95701.31
2022-08-05T13:18:11.331Z,95699.66
2022-08-05T13:23:22.424Z,95702.34
2022-08-05T13:28:25.506Z,95713.25
2022-08-05T13:34:23.189Z,95692.50
2022-08-05T13:38:52.000Z,95696.81
2022-08-05T13:43:55.551Z,95692.97
2022-08-05T13:49:01.021Z,95688.78
2022-08-05T13:54:11.881Z,95691.38
2022-08-05T13:59:27.117Z,95675.97
2022-08-05T14:05:01.925Z,95676.13
2022-08-05T14:10:19.107Z,95669.44
2022-08-05T14:16:08.908Z,95665.41
2022-08-05T14:22:07.729Z,95662.84
2022-08-05T14:26:35.705Z,95652.53
2022-08-05T14:32:03.209Z,95651.75
2022-08-05T14:37:06.038Z,95648.81
2022-08-05T14:42:19.664Z,95646.72
2022-08-05T14:48:03.726Z,95637.50
2022-08-05T14:52:53.044Z,95629.19
2022-08-05T14:57:58.497Z,95625.84
2022-08-05T15:03:00.167Z,95625.59
2022-08-05T15:08:10.744Z,95640.72
2022-08-05T15:13:14.887Z,95624.22
2022-08-05T15:18:17.308Z,95622.00
2022-08-05T15:23:19.777Z,95613.69
2022-08-05T15:28:27.370Z,95614.09
2022-08-05T15:34:04.971Z,95609.94
2022-08-05T15:41:03.739Z,95617.09
2022-08-05T15:44:16.531Z,95623.22
2022-08-05T15:49:27.467Z,95628.72
2022-08-05T15:54:41.544Z,95639.53
2022-08-05T15:59:44.965Z,95642.56
2022-08-05T16:04:47.316Z,95642.97
2022-08-05T16:09:49.148Z,95647.75
2022-08-05T16:14:50.869Z,95641.09
2022-08-05T16:20:04.168Z,95649.44
2022-08-05T16:25:10.208Z,95653.44
2022-08-05T16:30:23.378Z,95652.44
2022-08-05T16:35:33.513Z,95650.50
2022-08-05T16:40:36.489Z,95652.75
2022-08-05T16:46:04.888Z,95649.84
2022-08-05T16:51:00.566Z,95648.13
2022-08-05T16:56:02.619Z,95654.91
2022-08-05T17:01:06.690Z,95654.31
2022-08-05T17:06:12.414Z,95650.53
2022-08-05T17:11:17.007Z,95650.69
2022-08-05T17:16:33.105Z,95654.88
2022-08-05T17:21:36.757Z,95655.81
2022-08-05T17:26:39.185Z,95652.16
2022-08-05T17:31:59.073Z,95650.31
2022-08-05T17:37:00.867Z,95651.03
2022-08-05T17:42:18.316Z,95655.81
2022-08-05T17:47:23.069Z,95661.03
2022-08-05T17:52:26.176Z,95663.94
2022-08-05T17:57:28.809Z,95667.41
2022-08-05T18:02:30.443Z,95683.94
2022-08-05T18:07:41.339Z,95671.53
2022-08-05T18:12:43.693Z,95672.00
2022-08-05T18:18:00.794Z,95673.81
2022-08-05T18:23:09.204Z,95675.81
2022-08-05T18:28:11.418Z,95693.03
2022-08-05T18:33:14.023Z,95693.19
2022-08-05T18:38:19.120Z,95704.97
2022-08-05T18:43:27.536Z,95711.25
2022-08-05T18:48:33.729Z,95725.59
2022-08-05T18:53:45.696Z,95723.97
2022-08-05T18:58:54.788Z,95730.09
2022-08-05T19:04:05.333Z,95732.72
2022-08-05T19:09:08.335Z,95742.94
2022-08-05T19:14:44.705Z,95755.94
2022-08-05T19:19:31.962Z,95763.19
2022-08-05T19:24:34.429Z,95767.44
2022-08-05T19:29:38.814Z,95774.84
2022-08-05T19:34:54.369Z,95784.28
2022-08-05T19:40:02.106Z,95788.25
2022-08-05T19:45:14.664Z,95808.13
2022-08-05T19:50:18.484Z,95798.72
2022-08-05T19:56:15.599Z,95803.88
2022-08-05T20:00:44.744Z,95796.47
2022-08-05T20:05:53.094Z,95806.53
2022-08-05T20:10:56.779Z,95794.34
2022-08-05T20:16:04.174Z,95807.41
2022-08-05T20:21:07.889Z,95810.81
2022-08-05T20:26:16.524Z,95813.66
2022-08-05T20:31:36.785Z,95815.22
2022-08-05T20:36:45.504Z,95802.75
2022-08-05T20:41:48.286Z,95805.63
2022-08-05T20:46:50.085Z,95807.69
2022-08-05T20:51:55.162Z,95851.47
2022-08-05T20:56:58.302Z,95840.47
2022-08-05T21:02:00.476Z,95860.66
2022-08-05T21:07:02.843Z,95857.31
2022-08-05T21:12:11.661Z,95865.22
2022-08-05T21:17:15.450Z,95893.56
2022-08-05T21:22:21.918Z,95887.91
2022-08-05T21:27:27.255Z,95892.22
2022-08-05T21:32:29.547Z,95910.31
2022-08-05T21:37:31.565Z,95924.34
2022-08-05T21:42:44.347Z,95926.13
2022-08-05T21:47:57.258Z,95936.63
2022-08-05T21:53:04.640Z,95939.41
2022-08-05T21:58:20.274Z,95969.53
2022-08-05T22:03:52.340Z,95993.06
2022-08-05T22:08:51.871Z,96023.00
2022-08-05T22:14:05.710Z,96035.44
2022-08-05T22:19:57.230Z,96048.69
2022-08-05T22:24:56.401Z,96056.91
2022-08-05T22:29:59.224Z,96072.88
2022-08-05T22:35:00.994Z,96096.47
2022-08-05T22:40:07.325Z,96109.03
2022-08-05T22:45:12.150Z,96108.38
2022-08-05T22:50:19.056Z,96108.56
2022-08-05T22:55:27.020Z,96093.00
2022-08-05T23:00:42.372Z,96093.72
2022-08-05T23:05:44.619Z,96092.00
2022-08-05T23:10:46.752Z,96107.50
2022-08-05T23:15:50.319Z,96104.28
2022-08-05T23:20:52.603Z,96110.59
2022-08-05T23:25:55.335Z,96121.13
2022-08-05T23:31:15.678Z,96141.84
2022-08-05T23:36:18.790Z,96162.16
2022-08-05T23:41:20.876Z,96170.91
2022-08-05T23:46:23.942Z,96172.94
2022-08-05T23:51:25.864Z,96154.69
2022-08-05T23:56:27.871Z,96162.31
